Time;durP1;ratioP1;P1;durP2;ratioP2;P2;SDS_P1;SDS_P2;PMS_P1;PMS_P2;Temp;Humidity;BMP_temperature;BMP_pressure;BME280_temperature;BME280_humidity;BME280_pressure;Samples;Min_cycle;Max_cycle;Signal;HPM_P1;HPM_P2
2022/07/28 00:02:04;;;;;;;4.90;1.17;;;;;;;;;;6156616;23;20061;-67
2022/07/28 00:04:34;;;;;;;1.73;0.80;;;;;;;;;;6156805;23;20076;-67
2022/07/28 00:07:01;;;;;;;3.53;1.35;;;;;;;;;;6156571;23;20016;-67
2022/07/28 00:09:27;;;;;;;3.88;1.05;;;;;;;;;;6156280;23;19997;-67
2022/07/28 00:11:53;;;;;;;3.05;1.08;;;;;;;;;;6156212;23;20012;-67
2022/07/28 00:14:20;;;;;;;2.42;0.90;;;;;;;;;;6156649;23;20012;-67
2022/07/28 00:16:46;;;;;;;1.42;0.90;;;;;;;;;;6156402;23;20005;-67
2022/07/28 00:19:12;;;;;;;2.90;0.98;;;;;;;;;;6156509;23;20004;-67
2022/07/28 00:21:38;;;;;;;2.55;0.93;;;;;;;;;;6156174;23;20009;-67
2022/07/28 00:24:05;;;;;;;1.65;0.80;;;;;;;;;;6156318;23;20084;-67
2022/07/28 00:26:31;;;;;;;3.38;1.15;;;;;;;;;;6157144;23;20013;-67
2022/07/28 00:28:57;;;;;;;1.52;0.90;;;;;;;;;;6156355;23;20001;-67
2022/07/28 00:31:24;;;;;;;2.15;0.90;;;;;;;;;;6157174;23;20057;-67
2022/07/28 00:33:50;;;;;;;2.55;1.02;;;;;;;;;;6157047;23;20076;-67
2022/07/28 00:36:16;;;;;;;1.20;0.88;;;;;;;;;;6156149;23;20033;-67
2022/07/28 00:38:42;;;;;;;5.30;1.15;;;;;;;;;;6155823;23;20001;-67
2022/07/28 00:41:11;;;;;;;3.63;1.10;;;;;;;;;;6156884;23;20040;-67
2022/07/28 00:43:42;;;;;;;2.10;1.20;;;;;;;;;;6157433;23;20006;-67
2022/07/28 00:46:08;;;;;;;1.10;0.93;;;;;;;;;;6158219;23;20441;-67
2022/07/28 00:48:38;;;;;;;2.97;1.10;;;;;;;;;;6158243;23;20002;-67
2022/07/28 00:51:04;;;;;;;2.80;0.83;;;;;;;;;;6158895;23;20002;-67
2022/07/28 00:53:31;;;;;;;3.15;1.00;;;;;;;;;;6157823;23;20560;-67
2022/07/28 00:55:57;;;;;;;1.33;0.90;;;;;;;;;;6157952;23;20025;-67
2022/07/28 00:58:25;;;;;;;1.63;0.93;;;;;;;;;;6157737;23;20326;-67
2022/07/28 01:00:51;;;;;;;2.28;1.00;;;;;;;;;;6157766;23;20028;-67
2022/07/28 01:03:18;;;;;;;3.38;1.30;;;;;;;;;;6158770;23;20006;-67
2022/07/28 01:06:04;;;;;;;1.77;0.98;;;;;;;;;;6157971;23;20072;-67
2022/07/28 01:08:45;;;;;;;2.13;1.10;;;;;;;;;;6158446;23;20036;-67
2022/07/28 01:11:16;;;;;;;2.50;0.93;;;;;;;;;;6158008;23;20029;-67
2022/07/28 01:13:49;;;;;;;1.70;1.30;;;;;;;;;;6157930;23;20008;-67
2022/07/28 01:16:15;;;;;;;4.55;1.23;;;;;;;;;;6154698;23;20346;-67
2022/07/28 01:18:44;;;;;;;1.85;1.15;;;;;;;;;;6157953;23;20001;-67
2022/07/28 01:21:14;;;;;;;1.00;0.80;;;;;;;;;;6156956;23;20005;-67
2022/07/28 01:23:50;;;;;;;1.60;0.95;;;;;;;;;;6156137;23;20002;-67
2022/07/28 01:26:35;;;;;;;4.95;1.17;;;;;;;;;;6155788;23;20016;-67
2022/07/28 01:29:17;;;;;;;5.38;0.95;;;;;;;;;;6155044;23;20077;-67
2022/07/28 01:31:46;;;;;;;2.20;0.90;;;;;;;;;;6155136;23;20012;-67
2022/07/28 01:34:23;;;;;;;1.23;1.13;;;;;;;;;;6155408;23;20077;-67
2022/07/28 01:36:52;;;;;;;6.85;1.05;;;;;;;;;;6155042;23;20017;-67
2022/07/28 01:39:19;;;;;;;2.95;1.00;;;;;;;;;;6154775;23;19998;-67
2022/07/28 01:41:47;;;;;;;1.80;1.00;;;;;;;;;;6157118;23;20005;-67
2022/07/28 01:44:15;;;;;;;3.63;1.30;;;;;;;;;;6157893;23;20005;-67
2022/07/28 01:46:43;;;;;;;1.65;0.90;;;;;;;;;;6157778;23;20085;-66
2022/07/28 01:49:10;;;;;;;4.95;0.95;;;;;;;;;;6158065;23;20008;-67
2022/07/28 01:51:37;;;;;;;4.07;1.35;;;;;;;;;;6157775;23;20028;-67
2022/07/28 01:54:04;;;;;;;1.63;0.98;;;;;;;;;;6157179;23;20021;-67
2022/07/28 01:56:31;;;;;;;3.03;1.00;;;;;;;;;;6157949;23;20005;-67
2022/07/28 01:58:59;;;;;;;2.25;0.80;;;;;;;;;;6157698;23;20013;-67
2022/07/28 02:01:26;;;;;;;3.75;1.08;;;;;;;;;;6157551;23;20012;-67
2022/07/28 02:03:54;;;;;;;2.85;1.20;;;;;;;;;;6157368;23;20013;-67
2022/07/28 02:06:21;;;;;;;2.88;1.00;;;;;;;;;;6157786;23;20001;-67
2022/07/28 02:08:48;;;;;;;1.60;0.93;;;;;;;;;;6157342;23;20079;-66
2022/07/28 02:14:00;;;;;;;1.33;0.93;;;;;;;;;;6156756;23;20519;-67
2022/07/28 02:16:27;;;;;;;3.35;0.90;;;;;;;;;;6157360;23;20005;-67
2022/07/28 02:18:54;;;;;;;3.28;1.02;;;;;;;;;;6157565;23;20036;-67
2022/07/28 02:21:22;;;;;;;1.30;0.82;;;;;;;;;;6157352;23;20059;-67
2022/07/28 02:23:49;;;;;;;2.70;1.20;;;;;;;;;;6157301;23;20011;-67
2022/07/28 02:26:16;;;;;;;2.70;1.02;;;;;;;;;;6157377;23;20463;-67
2022/07/28 02:28:45;;;;;;;6.40;1.50;;;;;;;;;;6156903;23;20065;-66
2022/07/28 02:31:23;;;;;;;4.30;1.00;;;;;;;;;;6157199;23;20005;-67
2022/07/28 02:33:50;;;;;;;3.63;1.10;;;;;;;;;;6157191;23;20002;-67
2022/07/28 02:36:27;;;;;;;0.75;0.73;;;;;;;;;;6156913;23;20005;-67
2022/07/28 02:38:54;;;;;;;2.47;1.10;;;;;;;;;;6157561;23;20001;-67
2022/07/28 02:41:27;;;;;;;1.27;1.02;;;;;;;;;;6157865;23;20001;-67
2022/07/28 02:43:56;;;;;;;2.05;0.88;;;;;;;;;;6157054;23;20016;-67
2022/07/28 02:46:24;;;;;;;1.02;0.90;;;;;;;;;;6157021;23;20060;-67
2022/07/28 02:48:54;;;;;;;2.33;0.80;;;;;;;;;;6157101;23;20002;-67
2022/07/28 02:51:23;;;;;;;2.33;1.30;;;;;;;;;;6157384;23;20009;-67
2022/07/28 02:53:49;;;;;;;2.20;1.15;;;;;;;;;;6156807;23;20069;-67
2022/07/28 02:56:17;;;;;;;3.33;0.90;;;;;;;;;;6157055;23;20002;-67
2022/07/28 02:58:43;;;;;;;2.60;1.10;;;;;;;;;;6156580;23;20005;-66
2022/07/28 03:01:10;;;;;;;3.63;1.15;;;;;;;;;;6156627;23;20029;-66
2022/07/28 03:03:37;;;;;;;2.88;1.15;;;;;;;;;;6157215;23;20033;-67
2022/07/28 03:06:03;;;;;;;2.17;1.10;;;;;;;;;;6157617;23;20036;-66
2022/07/28 03:08:29;;;;;;;2.05;1.10;;;;;;;;;;6156691;23;20013;-66
2022/07/28 03:11:08;;;;;;;4.28;1.02;;;;;;;;;;6156533;23;20008;-66
2022/07/28 03:13:35;;;;;;;2.28;0.88;;;;;;;;;;6157578;23;20073;-66
2022/07/28 03:16:01;;;;;;;4.78;0.90;;;;;;;;;;6156863;23;20068;-66
2022/07/28 03:18:27;;;;;;;1.50;1.05;;;;;;;;;;6156394;23;20016;-66
2022/07/28 03:20:54;;;;;;;1.83;0.88;;;;;;;;;;6156775;23;19998;-66
2022/07/28 03:23:24;;;;;;;3.60;0.82;;;;;;;;;;6157216;23;20056;-66
2022/07/28 03:25:52;;;;;;;7.40;1.88;;;;;;;;;;6156311;23;20036;-66
2022/07/28 03:28:20;;;;;;;14.50;1.95;;;;;;;;;;6156766;23;20009;-66
2022/07/28 03:30:56;;;;;;;9.50;1.50;;;;;;;;;;6156305;23;20079;-67
2022/07/28 03:33:23;;;;;;;5.88;1.23;;;;;;;;;;6156339;23;20012;-66
2022/07/28 03:35:50;;;;;;;4.78;1.20;;;;;;;;;;6156390;23;20031;-66
2022/07/28 03:38:24;;;;;;;6.22;1.40;;;;;;;;;;6156529;23;20070;-66
2022/07/28 03:40:53;;;;;;;5.07;1.27;;;;;;;;;;6157003;23;20009;-66
2022/07/28 03:43:21;;;;;;;7.03;1.50;;;;;;;;;;6157616;23;20001;-66
2022/07/28 03:45:47;;;;;;;3.40;1.65;;;;;;;;;;6156205;23;20009;-66
2022/07/28 03:48:14;;;;;;;3.10;1.10;;;;;;;;;;6156626;23;20032;-66
2022/07/28 03:50:40;;;;;;;4.47;1.00;;;;;;;;;;6156642;23;20033;-66
2022/07/28 03:53:10;;;;;;;2.33;1.00;;;;;;;;;;6156443;23;20460;-66
2022/07/28 03:55:36;;;;;;;5.32;1.23;;;;;;;;;;6156796;23;20018;-67
2022/07/28 03:58:02;;;;;;;2.60;1.08;;;;;;;;;;6156291;23;20128;-66
2022/07/28 04:00:29;;;;;;;1.85;1.30;;;;;;;;;;6156261;23;20006;-66
2022/07/28 04:02:55;;;;;;;1.52;0.98;;;;;;;;;;6156894;23;20002;-66
2022/07/28 04:05:21;;;;;;;8.40;1.20;;;;;;;;;;6156554;23;20005;-66
2022/07/28 04:07:47;;;;;;;5.20;1.15;;;;;;;;;;6156227;23;20009;-66
2022/07/28 04:10:14;;;;;;;4.45;1.10;;;;;;;;;;6156339;23;19997;-66
2022/07/28 04:12:48;;;;;;;3.28;1.38;;;;;;;;;;6156419;23;20006;-66
2022/07/28 04:15:14;;;;;;;4.95;1.42;;;;;;;;;;6157287;23;20012;-66
2022/07/28 04:17:41;;;;;;;4.10;1.20;;;;;;;;;;6158815;23;20005;-66
2022/07/28 04:20:07;;;;;;;3.05;1.30;;;;;;;;;;6158832;23;20156;-66
2022/07/28 04:22:34;;;;;;;3.55;1.70;;;;;;;;;;6158900;23;20005;-66
2022/07/28 04:25:03;;;;;;;11.73;1.23;;;;;;;;;;6157737;23;20384;-66
2022/07/28 04:27:29;;;;;;;2.45;1.27;;;;;;;;;;6158055;23;20108;-66
2022/07/28 04:29:55;;;;;;;5.55;1.25;;;;;;;;;;6157999;23;20072;-66
2022/07/28 04:32:21;;;;;;;1.83;1.20;;;;;;;;;;6159088;23;20100;-66
2022/07/28 04:34:48;;;;;;;7.43;1.55;;;;;;;;;;6158914;23;20010;-66
2022/07/28 04:37:15;;;;;;;2.33;1.33;;;;;;;;;;6158330;23;20524;-66
2022/07/28 04:39:41;;;;;;;2.20;1.42;;;;;;;;;;6157667;23;20064;-66
2022/07/28 04:42:07;;;;;;;2.95;1.67;;;;;;;;;;6157821;23;20147;-66
2022/07/28 04:44:35;;;;;;;2.30;1.25;;;;;;;;;;6158049;23;20511;-66
2022/07/28 04:47:01;;;;;;;2.78;1.15;;;;;;;;;;6157649;23;20006;-66
2022/07/28 04:49:27;;;;;;;3.00;1.23;;;;;;;;;;6158142;23;20016;-66
2022/07/28 04:51:54;;;;;;;3.25;1.30;;;;;;;;;;6158186;23;20012;-66
2022/07/28 04:54:20;;;;;;;3.60;1.23;;;;;;;;;;6157495;23;20088;-67
2022/07/28 04:56:46;;;;;;;5.13;1.50;;;;;;;;;;6158191;23;20005;-67
2022/07/28 04:59:14;;;;;;;2.58;1.38;;;;;;;;;;6157687;23;20057;-67
2022/07/28 05:01:41;;;;;;;1.70;1.15;;;;;;;;;;6157658;23;20034;-67
2022/07/28 05:04:07;;;;;;;5.18;1.40;;;;;;;;;;6155516;23;20012;-67
2022/07/28 05:06:36;;;;;;;4.53;1.60;;;;;;;;;;6157430;23;20010;-66
2022/07/28 05:09:10;;;;;;;4.57;1.35;;;;;;;;;;6157193;23;19998;-66
2022/07/28 05:11:36;;;;;;;6.07;1.65;;;;;;;;;;6157950;23;20441;-66
2022/07/28 05:14:02;;;;;;;6.03;1.58;;;;;;;;;;6158170;23;20012;-66
2022/07/28 05:16:29;;;;;;;6.13;1.65;;;;;;;;;;6157538;23;20508;-66
2022/07/28 05:18:55;;;;;;;5.75;1.70;;;;;;;;;;6157223;23;20421;-67
2022/07/28 05:21:21;;;;;;;5.20;1.50;;;;;;;;;;6157204;23;20012;-67
2022/07/28 05:23:47;;;;;;;2.60;1.42;;;;;;;;;;6156584;23;20377;-67
2022/07/28 05:26:14;;;;;;;3.17;1.38;;;;;;;;;;6157343;23;20036;-67
2022/07/28 05:28:40;;;;;;;5.93;2.13;;;;;;;;;;6157447;23;20008;-67
2022/07/28 05:31:09;;;;;;;5.47;2.00;;;;;;;;;;6156685;23;20005;-66
2022/07/28 05:33:36;;;;;;;5.93;1.80;;;;;;;;;;6157416;23;20420;-67
2022/07/28 05:36:02;;;;;;;12.45;2.13;;;;;;;;;;6156613;23;20036;-68
2022/07/28 05:38:29;;;;;;;6.63;1.60;;;;;;;;;;6157059;23;20054;-69
2022/07/28 05:40:55;;;;;;;5.00;1.50;;;;;;;;;;6157172;23;20009;-71
2022/07/28 05:43:21;;;;;;;4.20;1.60;;;;;;;;;;6156597;23;19997;-71
2022/07/28 05:45:48;;;;;;;9.15;1.90;;;;;;;;;;6156604;23;20117;-71
2022/07/28 05:48:17;;;;;;;3.47;1.23;;;;;;;;;;6157285;23;20016;-73
2022/07/28 05:50:43;;;;;;;10.55;2.13;;;;;;;;;;6156771;23;20084;-76
2022/07/28 05:53:09;;;;;;;6.10;1.83;;;;;;;;;;6157441;23;20033;-70
2022/07/28 05:55:36;;;;;;;6.18;1.40;;;;;;;;;;6155964;23;20484;-69
2022/07/28 05:58:02;;;;;;;5.32;1.95;;;;;;;;;;6156516;23;20002;-67
2022/07/28 06:00:28;;;;;;;3.05;1.35;;;;;;;;;;6156991;23;20418;-69
2022/07/28 06:02:54;;;;;;;14.90;1.90;;;;;;;;;;6157049;23;20001;-69
2022/07/28 06:05:22;;;;;;;7.22;1.27;;;;;;;;;;6156385;23;20037;-68
2022/07/28 06:07:48;;;;;;;65.32;42.40;;;;;;;;;;6156663;23;20508;-66
2022/07/28 06:10:16;;;;;;;5.03;1.95;;;;;;;;;;6155826;23;20005;-68
2022/07/28 06:12:43;;;;;;;4.43;1.60;;;;;;;;;;6155811;23;20361;-65
2022/07/28 06:15:13;;;;;;;5.22;1.50;;;;;;;;;;6156932;23;20015;-67
2022/07/28 06:17:40;;;;;;;4.43;1.60;;;;;;;;;;6156766;23;20002;-66
2022/07/28 06:20:06;;;;;;;2.65;1.10;;;;;;;;;;6157065;23;20005;-69
2022/07/28 06:22:45;;;;;;;3.70;1.35;;;;;;;;;;6156408;23;20009;-69
2022/07/28 06:25:15;;;;;;;4.75;1.45;;;;;;;;;;6156667;23;20449;-68
2022/07/28 06:27:41;;;;;;;7.35;1.42;;;;;;;;;;6156295;23;20012;-67
2022/07/28 06:30:08;;;;;;;5.30;1.52;;;;;;;;;;6156835;23;20500;-67
2022/07/28 06:32:35;;;;;;;2.22;1.10;;;;;;;;;;6156527;23;20449;-67
2022/07/28 06:35:01;;;;;;;3.17;1.30;;;;;;;;;;6156958;23;20009;-67
2022/07/28 06:37:27;;;;;;;11.13;1.77;;;;;;;;;;6157854;23;20008;-68
2022/07/28 06:39:53;;;;;;;2.45;1.30;;;;;;;;;;6156585;23;20005;-67
2022/07/28 06:42:19;;;;;;;7.80;1.48;;;;;;;;;;6157040;23;20006;-67
2022/07/28 06:44:45;;;;;;;4.85;2.10;;;;;;;;;;6156368;23;20366;-67
2022/07/28 06:47:11;;;;;;;8.75;1.83;;;;;;;;;;6157205;23;20076;-67
2022/07/28 06:49:37;;;;;;;4.07;1.20;;;;;;;;;;6157015;23;20433;-68
2022/07/28 06:52:04;;;;;;;5.20;1.60;;;;;;;;;;6156817;23;20005;-67
2022/07/28 06:54:30;;;;;;;4.55;1.33;;;;;;;;;;6156131;23;20018;-67
2022/07/28 06:56:56;;;;;;;3.28;1.48;;;;;;;;;;6157982;23;20006;-67
2022/07/28 06:59:22;;;;;;;3.20;1.27;;;;;;;;;;6156997;23;20005;-67
2022/07/28 07:01:49;;;;;;;4.68;1.52;;;;;;;;;;6157007;23;20005;-67
2022/07/28 07:04:15;;;;;;;3.40;1.60;;;;;;;;;;6156733;23;20016;-67
2022/07/28 07:06:42;;;;;;;2.95;1.35;;;;;;;;;;6156908;23;20295;-67
2022/07/28 07:09:08;;;;;;;6.07;1.70;;;;;;;;;;6156245;23;20468;-67
2022/07/28 07:11:36;;;;;;;5.80;1.63;;;;;;;;;;6156856;23;20027;-67
2022/07/28 07:14:02;;;;;;;7.22;1.38;;;;;;;;;;6157349;23;20005;-67
2022/07/28 07:16:28;;;;;;;3.08;1.45;;;;;;;;;;6156952;23;20438;-67
2022/07/28 07:18:54;;;;;;;2.97;1.52;;;;;;;;;;6156839;23;20499;-67
2022/07/28 07:21:21;;;;;;;2.65;1.50;;;;;;;;;;6157061;23;20030;-67
2022/07/28 07:23:47;;;;;;;3.33;1.58;;;;;;;;;;6157004;23;20021;-67
2022/07/28 07:26:13;;;;;;;4.88;1.60;;;;;;;;;;6157330;23;20005;-67
2022/07/28 07:28:41;;;;;;;6.95;1.50;;;;;;;;;;6156753;23;20005;-67
2022/07/28 07:31:07;;;;;;;8.88;2.05;;;;;;;;;;6157393;23;20008;-67
2022/07/28 07:33:33;;;;;;;4.53;1.45;;;;;;;;;;6156886;23;20012;-67
2022/07/28 07:35:59;;;;;;;4.18;1.38;;;;;;;;;;6157207;23;20005;-67
2022/07/28 07:38:25;;;;;;;2.80;1.50;;;;;;;;;;6156116;23;20101;-67
2022/07/28 07:40:51;;;;;;;5.97;1.45;;;;;;;;;;6155488;23;20002;-67
2022/07/28 07:43:18;;;;;;;3.90;1.30;;;;;;;;;;6156420;23;20009;-67
2022/07/28 07:45:44;;;;;;;2.75;1.30;;;;;;;;;;6156558;23;20013;-67
2022/07/28 07:48:10;;;;;;;6.43;1.38;;;;;;;;;;6156638;23;20012;-67
2022/07/28 07:50:37;;;;;;;3.45;1.42;;;;;;;;;;6156144;23;20072;-67
2022/07/28 07:53:03;;;;;;;9.07;2.20;;;;;;;;;;6155927;23;20002;-67
2022/07/28 07:55:29;;;;;;;5.53;1.23;;;;;;;;;;6155719;23;20017;-67
2022/07/28 07:57:56;;;;;;;5.75;1.52;;;;;;;;;;6156981;23;20002;-67
2022/07/28 08:00:23;;;;;;;5.95;1.45;;;;;;;;;;6155938;23;20009;-67
2022/07/28 08:02:49;;;;;;;5.63;1.70;;;;;;;;;;6156705;23;20060;-67
2022/07/28 08:05:16;;;;;;;4.97;1.63;;;;;;;;;;6156134;23;20006;-67
2022/07/28 08:07:42;;;;;;;4.22;1.50;;;;;;;;;;6156504;23;20005;-67
2022/07/28 08:10:09;;;;;;;8.38;1.80;;;;;;;;;;6155878;23;20012;-67
2022/07/28 08:12:35;;;;;;;6.25;1.88;;;;;;;;;;6156703;23;20021;-66
2022/07/28 08:15:01;;;;;;;6.90;1.40;;;;;;;;;;6156257;23;20009;-67
2022/07/28 08:17:28;;;;;;;6.78;1.42;;;;;;;;;;6156044;23;20460;-66
2022/07/28 08:19:54;;;;;;;2.65;1.40;;;;;;;;;;6156117;23;20076;-67
2022/07/28 08:22:20;;;;;;;4.82;1.30;;;;;;;;;;6156462;23;20418;-66
2022/07/28 08:24:47;;;;;;;3.13;1.30;;;;;;;;;;6156127;23;20080;-67
2022/07/28 08:27:13;;;;;;;3.63;1.27;;;;;;;;;;6156455;23;20429;-67
2022/07/28 08:29:39;;;;;;;10.25;1.38;;;;;;;;;;6156623;23;20076;-67
2022/07/28 08:32:05;;;;;;;3.65;1.40;;;;;;;;;;6156095;23;20094;-67
2022/07/28 08:34:32;;;;;;;4.35;1.90;;;;;;;;;;6156119;23;20072;-67
2022/07/28 08:36:58;;;;;;;1.95;1.15;;;;;;;;;;6155991;23;20029;-67
2022/07/28 08:39:24;;;;;;;5.85;1.55;;;;;;;;;;6156401;23;20056;-67
2022/07/28 08:41:53;;;;;;;5.82;1.50;;;;;;;;;;6156355;23;20001;-67
2022/07/28 08:44:23;;;;;;;5.68;1.42;;;;;;;;;;6155979;23;20080;-67
2022/07/28 08:46:49;;;;;;;4.45;1.70;;;;;;;;;;6156393;23;20064;-67
2022/07/28 08:49:16;;;;;;;2.33;1.35;;;;;;;;;;6156420;23;20012;-67
2022/07/28 08:51:43;;;;;;;6.63;1.67;;;;;;;;;;6154564;23;20002;-67
2022/07/28 08:54:15;;;;;;;2.85;1.23;;;;;;;;;;6156033;23;20457;-67
2022/07/28 08:56:43;;;;;;;5.97;1.70;;;;;;;;;;6155878;23;20307;-67
2022/07/28 08:59:09;;;;;;;2.22;1.20;;;;;;;;;;6155901;23;20349;-67
2022/07/28 09:01:37;;;;;;;4.47;1.50;;;;;;;;;;6156731;23;20008;-67
2022/07/28 09:04:03;;;;;;;3.30;1.60;;;;;;;;;;6158524;23;20005;-67
2022/07/28 09:06:30;;;;;;;4.10;1.60;;;;;;;;;;6158043;23;20076;-67
2022/07/28 09:08:56;;;;;;;5.20;1.75;;;;;;;;;;6157695;23;20079;-67
2022/07/28 09:11:22;;;;;;;3.90;1.60;;;;;;;;;;6157716;23;20016;-67
2022/07/28 09:13:49;;;;;;;6.53;1.80;;;;;;;;;;6158147;23;20029;-67
2022/07/28 09:16:15;;;;;;;4.75;1.30;;;;;;;;;;6157496;23;20005;-67
2022/07/28 09:18:41;;;;;;;5.72;1.50;;;;;;;;;;6157713;23;20006;-67
2022/07/28 09:21:07;;;;;;;6.50;1.65;;;;;;;;;;6158395;23;20006;-67
2022/07/28 09:23:47;;;;;;;2.95;1.40;;;;;;;;;;6157819;23;20105;-67
2022/07/28 09:26:14;;;;;;;5.47;1.60;;;;;;;;;;6157763;23;20013;-67
2022/07/28 09:28:53;;;;;;;4.05;1.70;;;;;;;;;;6157762;23;20010;-67
2022/07/28 09:31:20;;;;;;;3.73;1.77;;;;;;;;;;6157590;23;20319;-67
2022/07/28 09:33:59;;;;;;;3.08;1.50;;;;;;;;;;6157488;23;20339;-67
2022/07/28 09:36:25;;;;;;;4.70;1.70;;;;;;;;;;6157303;23;20001;-67
2022/07/28 09:38:51;;;;;;;3.83;1.60;;;;;;;;;;6158053;23;20005;-67
2022/07/28 09:41:20;;;;;;;2.15;1.30;;;;;;;;;;6157582;23;20002;-67
2022/07/28 09:43:46;;;;;;;7.72;1.58;;;;;;;;;;6157207;23;20010;-67
2022/07/28 09:46:16;;;;;;;2.53;1.30;;;;;;;;;;6157317;23;20012;-67
2022/07/28 09:48:48;;;;;;;3.03;1.50;;;;;;;;;;6157596;23;20008;-67
2022/07/28 09:51:16;;;;;;;5.32;1.38;;;;;;;;;;6157350;23;20052;-67
2022/07/28 09:53:43;;;;;;;3.70;1.63;;;;;;;;;;6157272;23;20016;-69
2022/07/28 09:56:10;;;;;;;1.98;1.25;;;;;;;;;;6157718;23;20002;-67
2022/07/28 09:58:37;;;;;;;3.75;1.55;;;;;;;;;;6157328;23;20001;-67
2022/07/28 10:01:04;;;;;;;3.22;1.58;;;;;;;;;;6158192;23;20005;-67
2022/07/28 10:03:30;;;;;;;6.13;1.88;;;;;;;;;;6157211;23;20002;-67
2022/07/28 10:05:57;;;;;;;4.32;1.48;;;;;;;;;;6157148;23;20460;-67
2022/07/28 10:08:42;;;;;;;4.50;1.48;;;;;;;;;;6156868;23;20005;-67
2022/07/28 10:11:09;;;;;;;3.83;1.80;;;;;;;;;;6157661;23;20010;-67
2022/07/28 10:13:36;;;;;;;5.90;1.50;;;;;;;;;;6157008;23;20433;-67
2022/07/28 10:16:11;;;;;;;5.93;1.63;;;;;;;;;;6157499;23;20005;-67
2022/07/28 10:18:39;;;;;;;3.50;1.42;;;;;;;;;;6157415;23;20491;-67
2022/07/28 10:21:09;;;;;;;4.50;1.70;;;;;;;;;;6157196;23;20088;-67
2022/07/28 10:23:39;;;;;;;4.25;1.60;;;;;;;;;;6157319;23;20032;-67
2022/07/28 10:26:06;;;;;;;3.22;1.50;;;;;;;;;;6156506;23;20006;-67
2022/07/28 10:28:34;;;;;;;5.82;1.50;;;;;;;;;;6156781;23;20013;-67
2022/07/28 10:31:01;;;;;;;3.08;1.33;;;;;;;;;;6156593;23;20012;-67
2022/07/28 10:33:30;;;;;;;3.70;1.40;;;;;;;;;;6156869;23;20009;-67
2022/07/28 10:35:57;;;;;;;2.55;1.42;;;;;;;;;;6156496;23;20069;-67
2022/07/28 10:38:29;;;;;;;8.93;1.92;;;;;;;;;;6156019;23;20009;-67
2022/07/28 10:40:56;;;;;;;6.97;1.50;;;;;;;;;;6156912;23;20001;-67
2022/07/28 10:43:23;;;;;;;4.13;1.63;;;;;;;;;;6156774;23;20017;-67
2022/07/28 10:45:49;;;;;;;4.93;1.50;;;;;;;;;;6156142;23;20005;-67
2022/07/28 10:48:16;;;;;;;5.72;1.73;;;;;;;;;;6156594;23;20010;-67
2022/07/28 10:50:43;;;;;;;2.05;1.30;;;;;;;;;;6156554;23;19997;-67
2022/07/28 10:53:10;;;;;;;5.28;1.55;;;;;;;;;;6156402;23;20033;-67
2022/07/28 10:55:45;;;;;;;4.30;1.52;;;;;;;;;;6156270;23;20017;-67
2022/07/28 10:58:16;;;;;;;2.53;1.35;;;;;;;;;;6156357;23;20002;-67
2022/07/28 11:00:46;;;;;;;5.40;1.77;;;;;;;;;;6157025;23;20057;-69
2022/07/28 11:03:32;;;;;;;11.38;1.77;;;;;;;;;;6156606;23;20005;-68
2022/07/28 11:05:58;;;;;;;2.58;1.23;;;;;;;;;;6157044;23;20013;-68
2022/07/28 11:08:28;;;;;;;6.82;1.42;;;;;;;;;;6156378;23;20366;-68
2022/07/28 11:10:55;;;;;;;5.05;1.48;;;;;;;;;;6156140;23;20456;-68
2022/07/28 11:13:34;;;;;;;3.75;1.60;;;;;;;;;;6157181;23;20053;-68
2022/07/28 11:16:15;;;;;;;3.78;1.42;;;;;;;;;;6156968;23;20082;-68
2022/07/28 11:19:00;;;;;;;4.15;1.50;;;;;;;;;;6156026;23;20084;-68
2022/07/28 11:21:26;;;;;;;5.25;1.60;;;;;;;;;;6156363;23;20028;-69
2022/07/28 11:23:56;;;;;;;4.07;1.55;;;;;;;;;;6156536;23;20006;-69
2022/07/28 11:26:22;;;;;;;4.65;1.60;;;;;;;;;;6157160;23;20095;-68
2022/07/28 11:28:54;;;;;;;3.13;1.70;;;;;;;;;;6156298;23;20017;-68
2022/07/28 11:31:40;;;;;;;5.72;1.52;;;;;;;;;;6156556;23;20010;-69
2022/07/28 11:34:07;;;;;;;8.52;1.70;;;;;;;;;;6156900;23;20073;-68
2022/07/28 11:36:52;;;;;;;9.50;1.85;;;;;;;;;;6156316;23;20069;-68
2022/07/28 11:39:22;;;;;;;8.05;2.20;;;;;;;;;;6156545;23;20005;-68
2022/07/28 11:41:48;;;;;;;2.80;1.27;;;;;;;;;;6155738;23;20009;-69
2022/07/28 11:44:26;;;;;;;2.95;1.70;;;;;;;;;;6157079;23;20129;-69
2022/07/28 11:46:53;;;;;;;4.50;1.67;;;;;;;;;;6156379;23;20433;-69
2022/07/28 11:49:20;;;;;;;4.82;1.70;;;;;;;;;;6156681;23;20001;-69
2022/07/28 11:52:05;;;;;;;5.60;1.50;;;;;;;;;;6155080;23;20302;-69
2022/07/28 11:54:31;;;;;;;3.47;1.60;;;;;;;;;;6156473;23;20022;-69
2022/07/28 11:56:58;;;;;;;5.10;1.90;;;;;;;;;;6156654;23;20564;-69
2022/07/28 11:59:24;;;;;;;9.30;1.67;;;;;;;;;;6156591;23;20033;-69
2022/07/28 12:01:51;;;;;;;5.15;1.48;;;;;;;;;;6156235;23;19998;-69
2022/07/28 12:04:18;;;;;;;5.85;1.98;;;;;;;;;;6156730;23;20005;-69
2022/07/28 12:06:45;;;;;;;4.50;1.50;;;;;;;;;;6156484;23;20002;-69
2022/07/28 12:09:12;;;;;;;9.23;2.25;;;;;;;;;;6155909;23;20006;-69
2022/07/28 12:11:42;;;;;;;5.97;2.00;;;;;;;;;;6156232;23;20005;-69
2022/07/28 12:14:08;;;;;;;;;;;;;;;;;;6155281;23;20048;-69
2022/07/28 12:16:35;;;;;;;4.68;1.80;;;;;;;;;;6155701;23;19904;-68
2022/07/28 12:19:02;;;;;;;3.53;1.55;;;;;;;;;;6154036;23;20002;-69
2022/07/28 12:21:37;;;;;;;2.85;1.25;;;;;;;;;;6153259;23;20040;-68
2022/07/28 12:24:04;;;;;;;3.45;1.70;;;;;;;;;;6153470;23;20016;-68
2022/07/28 12:26:34;;;;;;;6.72;1.67;;;;;;;;;;6154653;23;20033;-68
2022/07/28 12:29:01;;;;;;;10.95;1.88;;;;;;;;;;6156112;23;20033;-69
2022/07/28 12:31:34;;;;;;;22.80;3.70;;;;;;;;;;6156393;23;20025;-69
2022/07/28 12:34:01;;;;;;;15.48;4.00;;;;;;;;;;6157009;23;20072;-69
2022/07/28 12:36:28;;;;;;;6.47;2.58;;;;;;;;;;6157596;23;20417;-68
2022/07/28 12:38:54;;;;;;;8.02;2.45;;;;;;;;;;6158169;23;20057;-69
2022/07/28 12:41:21;;;;;;;10.25;2.72;;;;;;;;;;6158103;23;20026;-68
2022/07/28 12:43:50;;;;;;;5.13;1.90;;;;;;;;;;6157967;23;20005;-68
2022/07/28 12:46:21;;;;;;;8.07;2.50;;;;;;;;;;6157611;23;20005;-69
2022/07/28 12:48:48;;;;;;;16.67;2.72;;;;;;;;;;6157411;23;20013;-68
2022/07/28 12:51:30;;;;;;;7.50;2.60;;;;;;;;;;6157752;23;20021;-68
2022/07/28 12:53:56;;;;;;;5.85;2.60;;;;;;;;;;6156809;23;20006;-69
2022/07/28 12:56:22;;;;;;;4.95;1.90;;;;;;;;;;6157882;23;20005;-68
2022/07/28 12:58:55;;;;;;;4.97;2.00;;;;;;;;;;6157365;23;20009;-68
2022/07/28 13:01:21;;;;;;;4.53;2.08;;;;;;;;;;6158464;23;20056;-68
2022/07/28 13:03:47;;;;;;;7.80;2.05;;;;;;;;;;6157733;23;20002;-68
2022/07/28 13:06:14;;;;;;;4.68;2.53;;;;;;;;;;6156263;23;20013;-68
2022/07/28 13:08:46;;;;;;;9.27;2.40;;;;;;;;;;6157809;23;20087;-68
2022/07/28 13:11:14;;;;;;;3.70;2.10;;;;;;;;;;6158036;23;20012;-68
2022/07/28 13:13:50;;;;;;;10.93;2.60;;;;;;;;;;6158280;23;20006;-68
2022/07/28 13:16:18;;;;;;;5.30;2.05;;;;;;;;;;6157581;23;20433;-68
2022/07/28 13:18:45;;;;;;;6.97;2.00;;;;;;;;;;6157558;23;19997;-68
2022/07/28 13:21:12;;;;;;;4.95;2.20;;;;;;;;;;6158307;23;20392;-68
2022/07/28 13:23:38;;;;;;;6.75;2.42;;;;;;;;;;6158515;23;20097;-68
2022/07/28 13:26:05;;;;;;;7.35;2.03;;;;;;;;;;6157782;23;20009;-68
2022/07/28 13:28:31;;;;;;;5.18;2.20;;;;;;;;;;6157385;23;20112;-68
2022/07/28 13:30:58;;;;;;;3.67;2.30;;;;;;;;;;6157867;23;20012;-68
2022/07/28 13:33:25;;;;;;;8.35;2.63;;;;;;;;;;6157901;23;20002;-68
2022/07/28 13:35:52;;;;;;;5.13;2.08;;;;;;;;;;6157365;23;20036;-68
2022/07/28 13:38:18;;;;;;;5.20;2.20;;;;;;;;;;6158177;23;20021;-68
2022/07/28 13:40:45;;;;;;;6.90;2.25;;;;;;;;;;6157671;23;20013;-68
2022/07/28 13:43:11;;;;;;;5.70;2.10;;;;;;;;;;6158464;23;20134;-68
2022/07/28 13:45:37;;;;;;;7.22;2.03;;;;;;;;;;6157515;23;20052;-68
2022/07/28 13:48:04;;;;;;;3.17;1.95;;;;;;;;;;6156990;23;20006;-68
2022/07/28 13:50:30;;;;;;;6.25;2.70;;;;;;;;;;6157370;23;20007;-68
2022/07/28 13:52:56;;;;;;;4.47;2.13;;;;;;;;;;6158366;23;20028;-68
2022/07/28 13:55:22;;;;;;;3.40;1.75;;;;;;;;;;6156963;23;20029;-68
2022/07/28 13:57:48;;;;;;;2.80;1.75;;;;;;;;;;6157713;23;20076;-68
2022/07/28 14:00:16;;;;;;;4.28;2.00;;;;;;;;;;6157258;23;20006;-68
2022/07/28 14:02:42;;;;;;;3.75;1.88;;;;;;;;;;6157924;23;20028;-68
2022/07/28 14:05:09;;;;;;;3.30;1.73;;;;;;;;;;6157159;23;20084;-68
2022/07/28 14:07:35;;;;;;;4.72;1.92;;;;;;;;;;6157529;23;20009;-68
2022/07/28 14:10:01;;;;;;;3.63;1.80;;;;;;;;;;6156965;23;20056;-68
2022/07/28 14:12:27;;;;;;;2.65;1.90;;;;;;;;;;6157749;23;20006;-68
2022/07/28 14:14:53;;;;;;;2.25;2.03;;;;;;;;;;6157389;23;20005;-68
2022/07/28 14:17:21;;;;;;;6.65;2.38;;;;;;;;;;6158007;23;20002;-68
2022/07/28 14:19:47;;;;;;;7.95;2.22;;;;;;;;;;6156984;23;20069;-68
2022/07/28 14:22:14;;;;;;;3.58;2.10;;;;;;;;;;6157007;23;20084;-68
2022/07/28 14:24:40;;;;;;;7.05;2.25;;;;;;;;;;6156741;23;20337;-68
2022/07/28 14:27:07;;;;;;;3.80;2.20;;;;;;;;;;6156970;23;20006;-68
2022/07/28 14:29:33;;;;;;;3.50;1.90;;;;;;;;;;6157389;23;20002;-68
2022/07/28 14:31:59;;;;;;;2.97;2.00;;;;;;;;;;6157302;23;20606;-68
2022/07/28 14:34:25;;;;;;;4.00;2.22;;;;;;;;;;6156973;23;20010;-68
2022/07/28 14:36:51;;;;;;;6.13;1.98;;;;;;;;;;6157155;23;20004;-68
2022/07/28 14:39:18;;;;;;;3.92;1.90;;;;;;;;;;6156866;23;20006;-68
2022/07/28 14:41:45;;;;;;;4.95;2.00;;;;;;;;;;6157089;23;20008;-68
2022/07/28 14:44:11;;;;;;;3.08;2.05;;;;;;;;;;6156820;23;20005;-68
2022/07/28 14:46:37;;;;;;;3.05;1.75;;;;;;;;;;6156780;23;20069;-68
2022/07/28 14:49:03;;;;;;;5.32;2.00;;;;;;;;;;6157343;23;20521;-68
2022/07/28 14:51:29;;;;;;;3.78;1.90;;;;;;;;;;6156638;23;20002;-68